sensor_id;sensor_type;location;lat;lon;timestamp;P1;durP1;ratioP1;P2;durP2;ratioP2
80621;SDS011;69980;51.914;7.526;2023-06-22T00:00:49;11.30;;;10.18;;
80621;SDS011;69980;51.914;7.526;2023-06-22T00:03:15;11.50;;;10.30;;
80621;SDS011;69980;51.914;7.526;2023-06-22T00:05:42;11.18;;;10.07;;
80621;SDS011;69980;51.914;7.526;2023-06-22T00:08:07;11.55;;;9.40;;
80621;SDS011;69980;51.914;7.526;2023-06-22T00:10:32;12.73;;;11.35;;
80621;SDS011;69980;51.914;7.526;2023-06-22T00:12:57;12.23;;;10.93;;
80621;SDS011;69980;51.914;7.526;2023-06-22T00:15:23;13.35;;;11.27;;
80621;SDS011;69980;51.914;7.526;2023-06-22T00:17:49;10.70;;;9.68;;
80621;SDS011;69980;51.914;7.526;2023-06-22T00:20:14;14.48;;;11.90;;
80621;SDS011;69980;51.914;7.526;2023-06-22T00:22:40;12.32;;;11.02;;
80621;SDS011;69980;51.914;7.526;2023-06-22T00:25:08;12.18;;;10.93;;
80621;SDS011;69980;51.914;7.526;2023-06-22T00:27:34;14.02;;;12.50;;
80621;SDS011;69980;51.914;7.526;2023-06-22T00:30:00;11.90;;;10.70;;
80621;SDS011;69980;51.914;7.526;2023-06-22T00:32:25;13.13;;;11.13;;
80621;SDS011;69980;51.914;7.526;2023-06-22T00:34:50;12.82;;;11.52;;
80621;SDS011;69980;51.914;7.526;2023-06-22T00:37:16;11.57;;;10.10;;
80621;SDS011;69980;51.914;7.526;2023-06-22T00:39:42;10.80;;;9.70;;
80621;SDS011;69980;51.914;7.526;2023-06-22T00:42:08;11.25;;;9.98;;
80621;SDS011;69980;51.914;7.526;2023-06-22T00:44:34;12.13;;;10.75;;
80621;SDS011;69980;51.914;7.526;2023-06-22T00:47:00;12.70;;;11.38;;
80621;SDS011;69980;51.914;7.526;2023-06-22T00:49:25;13.57;;;11.68;;
80621;SDS011;69980;51.914;7.526;2023-06-22T00:51:50;11.98;;;10.77;;
80621;SDS011;69980;51.914;7.526;2023-06-22T00:54:16;13.20;;;10.88;;
80621;SDS011;69980;51.914;7.526;2023-06-22T00:56:41;12.88;;;10.93;;
80621;SDS011;69980;51.914;7.526;2023-06-22T00:59:07;13.32;;;11.68;;
80621;SDS011;69980;51.914;7.526;2023-06-22T01:01:32;12.13;;;10.93;;
80621;SDS011;69980;51.914;7.526;2023-06-22T01:03:57;12.77;;;11.38;;
80621;SDS011;69980;51.914;7.526;2023-06-22T01:06:25;14.95;;;13.27;;
80621;SDS011;69980;51.914;7.526;2023-06-22T01:09:00;13.32;;;11.93;;
80621;SDS011;69980;51.914;7.526;2023-06-22T01:11:41;14.48;;;12.98;;
80621;SDS011;69980;51.914;7.526;2023-06-22T01:14:10;14.63;;;13.23;;
80621;SDS011;69980;51.914;7.526;2023-06-22T01:16:40;14.98;;;13.55;;
80621;SDS011;69980;51.914;7.526;2023-06-22T01:19:15;14.02;;;12.52;;
80621;SDS011;69980;51.914;7.526;2023-06-22T01:21:46;14.82;;;13.32;;
80621;SDS011;69980;51.914;7.526;2023-06-22T01:27:50;14.05;;;12.63;;
80621;SDS011;69980;51.914;7.526;2023-06-22T01:30:20;14.23;;;12.80;;
80621;SDS011;69980;51.914;7.526;2023-06-22T01:32:46;14.68;;;13.18;;
80621;SDS011;69980;51.914;7.526;2023-06-22T01:35:11;13.80;;;12.40;;
80621;SDS011;69980;51.914;7.526;2023-06-22T01:37:37;14.68;;;13.15;;
80621;SDS011;69980;51.914;7.526;2023-06-22T01:40:04;15.45;;;13.85;;
80621;SDS011;69980;51.914;7.526;2023-06-22T01:42:30;15.30;;;13.80;;
80621;SDS011;69980;51.914;7.526;2023-06-22T01:44:55;15.55;;;14.00;;
80621;SDS011;69980;51.914;7.526;2023-06-22T01:47:23;15.13;;;13.77;;
80621;SDS011;69980;51.914;7.526;2023-06-22T01:49:49;15.93;;;14.25;;
80621;SDS011;69980;51.914;7.526;2023-06-22T01:52:15;17.33;;;15.60;;
80621;SDS011;69980;51.914;7.526;2023-06-22T01:54:41;16.30;;;14.77;;
80621;SDS011;69980;51.914;7.526;2023-06-22T01:57:06;20.67;;;16.40;;
80621;SDS011;69980;51.914;7.526;2023-06-22T01:59:32;20.33;;;17.02;;
80621;SDS011;69980;51.914;7.526;2023-06-22T02:02:01;17.13;;;15.27;;
80621;SDS011;69980;51.914;7.526;2023-06-22T02:04:48;18.23;;;16.42;;
80621;SDS011;69980;51.914;7.526;2023-06-22T02:07:17;17.10;;;15.43;;
80621;SDS011;69980;51.914;7.526;2023-06-22T02:09:44;16.63;;;14.90;;
80621;SDS011;69980;51.914;7.526;2023-06-22T02:12:11;18.83;;;16.98;;
80621;SDS011;69980;51.914;7.526;2023-06-22T02:14:37;16.60;;;14.93;;
80621;SDS011;69980;51.914;7.526;2023-06-22T02:17:03;18.05;;;16.20;;
80621;SDS011;69980;51.914;7.526;2023-06-22T02:19:29;17.02;;;15.43;;
80621;SDS011;69980;51.914;7.526;2023-06-22T02:21:55;15.73;;;14.15;;
80621;SDS011;69980;51.914;7.526;2023-06-22T02:24:21;16.75;;;15.25;;
80621;SDS011;69980;51.914;7.526;2023-06-22T02:26:46;17.27;;;15.60;;
80621;SDS011;69980;51.914;7.526;2023-06-22T02:29:11;16.17;;;14.65;;
80621;SDS011;69980;51.914;7.526;2023-06-22T02:31:37;16.63;;;14.85;;
80621;SDS011;69980;51.914;7.526;2023-06-22T02:34:02;18.38;;;16.38;;
80621;SDS011;69980;51.914;7.526;2023-06-22T02:36:27;17.45;;;15.75;;
80621;SDS011;69980;51.914;7.526;2023-06-22T02:38:53;16.08;;;14.55;;
80621;SDS011;69980;51.914;7.526;2023-06-22T02:41:18;18.70;;;16.67;;
80621;SDS011;69980;51.914;7.526;2023-06-22T02:43:46;15.95;;;14.25;;
80621;SDS011;69980;51.914;7.526;2023-06-22T02:46:12;17.98;;;16.17;;
80621;SDS011;69980;51.914;7.526;2023-06-22T02:48:41;18.55;;;16.60;;
80621;SDS011;69980;51.914;7.526;2023-06-22T02:51:06;17.95;;;16.02;;
80621;SDS011;69980;51.914;7.526;2023-06-22T02:53:32;14.60;;;13.23;;
80621;SDS011;69980;51.914;7.526;2023-06-22T02:55:57;16.85;;;15.15;;
80621;SDS011;69980;51.914;7.526;2023-06-22T02:58:22;17.63;;;15.88;;
80621;SDS011;69980;51.914;7.526;2023-06-22T03:00:48;17.88;;;16.17;;
80621;SDS011;69980;51.914;7.526;2023-06-22T03:03:13;18.80;;;17.02;;
80621;SDS011;69980;51.914;7.526;2023-06-22T03:05:38;18.23;;;16.42;;
80621;SDS011;69980;51.914;7.526;2023-06-22T03:08:04;17.98;;;15.93;;
80621;SDS011;69980;51.914;7.526;2023-06-22T03:10:29;16.95;;;15.23;;
80621;SDS011;69980;51.914;7.526;2023-06-22T03:12:54;18.33;;;16.27;;
80621;SDS011;69980;51.914;7.526;2023-06-22T03:15:20;18.70;;;16.90;;
80621;SDS011;69980;51.914;7.526;2023-06-22T03:17:45;18.80;;;16.92;;
80621;SDS011;69980;51.914;7.526;2023-06-22T03:20:11;17.60;;;15.75;;
80621;SDS011;69980;51.914;7.526;2023-06-22T03:22:36;17.45;;;15.70;;
80621;SDS011;69980;51.914;7.526;2023-06-22T03:25:02;17.85;;;16.02;;
80621;SDS011;69980;51.914;7.526;2023-06-22T03:27:28;17.90;;;16.00;;
80621;SDS011;69980;51.914;7.526;2023-06-22T03:29:53;18.17;;;16.15;;
80621;SDS011;69980;51.914;7.526;2023-06-22T03:32:18;18.08;;;16.30;;
80621;SDS011;69980;51.914;7.526;2023-06-22T03:34:43;19.20;;;17.10;;
80621;SDS011;69980;51.914;7.526;2023-06-22T03:37:10;16.08;;;14.30;;
80621;SDS011;69980;51.914;7.526;2023-06-22T03:39:35;16.35;;;14.75;;
80621;SDS011;69980;51.914;7.526;2023-06-22T03:42:01;14.88;;;13.45;;
80621;SDS011;69980;51.914;7.526;2023-06-22T03:44:26;16.73;;;15.00;;
80621;SDS011;69980;51.914;7.526;2023-06-22T03:46:51;16.58;;;14.88;;
80621;SDS011;69980;51.914;7.526;2023-06-22T03:49:17;16.08;;;14.57;;
80621;SDS011;69980;51.914;7.526;2023-06-22T03:51:42;14.70;;;13.10;;
80621;SDS011;69980;51.914;7.526;2023-06-22T03:54:07;15.55;;;13.90;;
80621;SDS011;69980;51.914;7.526;2023-06-22T03:56:32;16.90;;;14.88;;
80621;SDS011;69980;51.914;7.526;2023-06-22T03:58:58;17.23;;;14.40;;
80621;SDS011;69980;51.914;7.526;2023-06-22T04:01:23;15.55;;;14.00;;
80621;SDS011;69980;51.914;7.526;2023-06-22T04:03:48;17.80;;;15.80;;
80621;SDS011;69980;51.914;7.526;2023-06-22T04:06:14;16.45;;;14.75;;
80621;SDS011;69980;51.914;7.526;2023-06-22T04:08:39;15.88;;;14.30;;
80621;SDS011;69980;51.914;7.526;2023-06-22T04:11:04;14.68;;;13.23;;
80621;SDS011;69980;51.914;7.526;2023-06-22T04:13:29;16.60;;;14.88;;
80621;SDS011;69980;51.914;7.526;2023-06-22T04:15:55;15.80;;;14.18;;
80621;SDS011;69980;51.914;7.526;2023-06-22T04:18:20;14.38;;;12.88;;
80621;SDS011;69980;51.914;7.526;2023-06-22T04:20:45;16.27;;;14.68;;
80621;SDS011;69980;51.914;7.526;2023-06-22T04:23:11;16.15;;;14.65;;
80621;SDS011;69980;51.914;7.526;2023-06-22T04:25:36;16.25;;;14.60;;
80621;SDS011;69980;51.914;7.526;2023-06-22T04:28:01;16.48;;;14.85;;
80621;SDS011;69980;51.914;7.526;2023-06-22T04:30:27;15.13;;;12.73;;
80621;SDS011;69980;51.914;7.526;2023-06-22T04:32:52;14.32;;;12.82;;
80621;SDS011;69980;51.914;7.526;2023-06-22T04:35:17;15.57;;;14.00;;
80621;SDS011;69980;51.914;7.526;2023-06-22T04:37:42;14.57;;;13.05;;
80621;SDS011;69980;51.914;7.526;2023-06-22T04:40:08;16.55;;;13.68;;
80621;SDS011;69980;51.914;7.526;2023-06-22T04:42:34;15.57;;;13.88;;
80621;SDS011;69980;51.914;7.526;2023-06-22T04:45:00;13.57;;;12.18;;
80621;SDS011;69980;51.914;7.526;2023-06-22T04:47:25;17.20;;;12.68;;
80621;SDS011;69980;51.914;7.526;2023-06-22T04:49:50;13.55;;;11.68;;
80621;SDS011;69980;51.914;7.526;2023-06-22T04:52:15;11.98;;;10.85;;
80621;SDS011;69980;51.914;7.526;2023-06-22T04:54:41;12.45;;;10.40;;
80621;SDS011;69980;51.914;7.526;2023-06-22T04:57:06;11.80;;;10.55;;
80621;SDS011;69980;51.914;7.526;2023-06-22T04:59:32;13.20;;;11.60;;
80621;SDS011;69980;51.914;7.526;2023-06-22T05:01:58;11.80;;;10.60;;
80621;SDS011;69980;51.914;7.526;2023-06-22T05:04:24;13.50;;;11.07;;
80621;SDS011;69980;51.914;7.526;2023-06-22T05:06:50;12.13;;;10.88;;
80621;SDS011;69980;51.914;7.526;2023-06-22T05:09:15;11.68;;;10.57;;
80621;SDS011;69980;51.914;7.526;2023-06-22T05:11:41;12.10;;;10.30;;
80621;SDS011;69980;51.914;7.526;2023-06-22T05:14:06;12.88;;;10.18;;
80621;SDS011;69980;51.914;7.526;2023-06-22T05:16:31;12.40;;;11.10;;
80621;SDS011;69980;51.914;7.526;2023-06-22T05:18:57;10.50;;;9.40;;
80621;SDS011;69980;51.914;7.526;2023-06-22T05:21:23;11.73;;;9.80;;
80621;SDS011;69980;51.914;7.526;2023-06-22T05:23:50;13.00;;;10.05;;
80621;SDS011;69980;51.914;7.526;2023-06-22T05:26:17;11.88;;;10.68;;
80621;SDS011;69980;51.914;7.526;2023-06-22T05:28:43;11.02;;;9.93;;
80621;SDS011;69980;51.914;7.526;2023-06-22T05:31:08;11.10;;;9.98;;
80621;SDS011;69980;51.914;7.526;2023-06-22T05:33:34;11.43;;;10.23;;
80621;SDS011;69980;51.914;7.526;2023-06-22T05:35:59;11.07;;;9.98;;
80621;SDS011;69980;51.914;7.526;2023-06-22T05:38:24;11.93;;;10.40;;
80621;SDS011;69980;51.914;7.526;2023-06-22T05:40:50;10.32;;;9.15;;
80621;SDS011;69980;51.914;7.526;2023-06-22T05:43:15;11.57;;;10.40;;
80621;SDS011;69980;51.914;7.526;2023-06-22T05:45:40;12.95;;;9.85;;
80621;SDS011;69980;51.914;7.526;2023-06-22T05:48:06;13.82;;;10.63;;
80621;SDS011;69980;51.914;7.526;2023-06-22T05:50:31;12.30;;;11.00;;
80621;SDS011;69980;51.914;7.526;2023-06-22T05:52:56;11.80;;;10.45;;
80621;SDS011;69980;51.914;7.526;2023-06-22T05:55:22;10.43;;;9.32;;
80621;SDS011;69980;51.914;7.526;2023-06-22T05:57:47;12.00;;;10.40;;
80621;SDS011;69980;51.914;7.526;2023-06-22T06:00:13;12.32;;;9.82;;
80621;SDS011;69980;51.914;7.526;2023-06-22T06:02:40;12.43;;;11.02;;
80621;SDS011;69980;51.914;7.526;2023-06-22T06:05:05;11.10;;;9.90;;
80621;SDS011;69980;51.914;7.526;2023-06-22T06:07:31;10.25;;;9.15;;
80621;SDS011;69980;51.914;7.526;2023-06-22T06:09:56;10.48;;;9.32;;
80621;SDS011;69980;51.914;7.526;2023-06-22T06:12:21;10.77;;;9.30;;
80621;SDS011;69980;51.914;7.526;2023-06-22T06:14:47;11.00;;;9.63;;
80621;SDS011;69980;51.914;7.526;2023-06-22T06:17:12;11.32;;;9.90;;
80621;SDS011;69980;51.914;7.526;2023-06-22T06:19:37;10.70;;;9.63;;
80621;SDS011;69980;51.914;7.526;2023-06-22T06:22:03;11.90;;;10.35;;
80621;SDS011;69980;51.914;7.526;2023-06-22T06:24:28;11.50;;;10.30;;
80621;SDS011;69980;51.914;7.526;2023-06-22T06:26:53;9.90;;;8.88;;
80621;SDS011;69980;51.914;7.526;2023-06-22T06:29:19;11.48;;;9.13;;
80621;SDS011;69980;51.914;7.526;2023-06-22T06:31:44;10.73;;;9.63;;
80621;SDS011;69980;51.914;7.526;2023-06-22T06:34:09;10.15;;;8.95;;
80621;SDS011;69980;51.914;7.526;2023-06-22T06:36:34;10.95;;;9.93;;
80621;SDS011;69980;51.914;7.526;2023-06-22T06:39:00;10.45;;;9.35;;
80621;SDS011;69980;51.914;7.526;2023-06-22T06:41:25;10.30;;;8.65;;
80621;SDS011;69980;51.914;7.526;2023-06-22T06:43:50;10.48;;;8.90;;
80621;SDS011;69980;51.914;7.526;2023-06-22T06:46:16;8.85;;;7.90;;
80621;SDS011;69980;51.914;7.526;2023-06-22T06:48:41;10.38;;;9.32;;
80621;SDS011;69980;51.914;7.526;2023-06-22T06:51:06;9.98;;;8.85;;
80621;SDS011;69980;51.914;7.526;2023-06-22T06:53:31;8.38;;;7.45;;
80621;SDS011;69980;51.914;7.526;2023-06-22T06:55:57;10.13;;;8.93;;
80621;SDS011;69980;51.914;7.526;2023-06-22T06:58:22;9.15;;;8.18;;
80621;SDS011;69980;51.914;7.526;2023-06-22T07:00:47;12.98;;;8.82;;
80621;SDS011;69980;51.914;7.526;2023-06-22T07:03:13;11.00;;;8.70;;
80621;SDS011;69980;51.914;7.526;2023-06-22T07:05:38;9.02;;;8.05;;
80621;SDS011;69980;51.914;7.526;2023-06-22T07:08:03;11.07;;;9.05;;
80621;SDS011;69980;51.914;7.526;2023-06-22T07:10:29;10.93;;;9.27;;
80621;SDS011;69980;51.914;7.526;2023-06-22T07:12:54;10.25;;;7.75;;
80621;SDS011;69980;51.914;7.526;2023-06-22T07:15:19;10.13;;;9.05;;
80621;SDS011;69980;51.914;7.526;2023-06-22T07:17:45;10.75;;;9.48;;
80621;SDS011;69980;51.914;7.526;2023-06-22T07:20:10;13.50;;;9.63;;
80621;SDS011;69980;51.914;7.526;2023-06-22T07:22:36;11.60;;;9.55;;
80621;SDS011;69980;51.914;7.526;2023-06-22T07:25:02;10.05;;;9.05;;
80621;SDS011;69980;51.914;7.526;2023-06-22T07:27:27;10.52;;;9.48;;
80621;SDS011;69980;51.914;7.526;2023-06-22T07:29:53;10.38;;;9.27;;
80621;SDS011;69980;51.914;7.526;2023-06-22T07:32:18;11.70;;;10.48;;
80621;SDS011;69980;51.914;7.526;2023-06-22T07:34:43;10.38;;;9.38;;
80621;SDS011;69980;51.914;7.526;2023-06-22T07:37:08;12.95;;;10.45;;
80621;SDS011;69980;51.914;7.526;2023-06-22T07:39:34;10.88;;;9.77;;
80621;SDS011;69980;51.914;7.526;2023-06-22T07:41:59;10.05;;;8.88;;
80621;SDS011;69980;51.914;7.526;2023-06-22T07:44:24;11.00;;;9.27;;
80621;SDS011;69980;51.914;7.526;2023-06-22T07:46:50;10.88;;;9.77;;
80621;SDS011;69980;51.914;7.526;2023-06-22T07:49:16;11.85;;;9.68;;
80621;SDS011;69980;51.914;7.526;2023-06-22T07:51:42;11.05;;;9.85;;
80621;SDS011;69980;51.914;7.526;2023-06-22T07:54:08;12.05;;;9.93;;
80621;SDS011;69980;51.914;7.526;2023-06-22T07:56:34;9.77;;;8.77;;
80621;SDS011;69980;51.914;7.526;2023-06-22T07:58:59;10.57;;;9.57;;
80621;SDS011;69980;51.914;7.526;2023-06-22T08:01:24;10.88;;;9.77;;
80621;SDS011;69980;51.914;7.526;2023-06-22T08:03:50;11.95;;;10.75;;
80621;SDS011;69980;51.914;7.526;2023-06-22T08:06:15;10.35;;;9.25;;
80621;SDS011;69980;51.914;7.526;2023-06-22T08:08:41;11.23;;;9.68;;
80621;SDS011;69980;51.914;7.526;2023-06-22T08:11:06;11.48;;;10.23;;
80621;SDS011;69980;51.914;7.526;2023-06-22T08:13:31;11.07;;;10.05;;
80621;SDS011;69980;51.914;7.526;2023-06-22T08:15:56;10.95;;;9.38;;
80621;SDS011;69980;51.914;7.526;2023-06-22T08:18:22;12.88;;;10.10;;
80621;SDS011;69980;51.914;7.526;2023-06-22T08:20:47;11.20;;;10.00;;
80621;SDS011;69980;51.914;7.526;2023-06-22T08:23:12;10.50;;;9.38;;
80621;SDS011;69980;51.914;7.526;2023-06-22T08:25:38;11.00;;;9.90;;
80621;SDS011;69980;51.914;7.526;2023-06-22T08:28:03;10.40;;;9.32;;
80621;SDS011;69980;51.914;7.526;2023-06-22T08:30:29;13.57;;;9.73;;
80621;SDS011;69980;51.914;7.526;2023-06-22T08:32:54;11.18;;;10.05;;
80621;SDS011;69980;51.914;7.526;2023-06-22T08:35:19;11.70;;;9.25;;
80621;SDS011;69980;51.914;7.526;2023-06-22T08:37:45;10.63;;;9.35;;
80621;SDS011;69980;51.914;7.526;2023-06-22T08:40:10;10.90;;;9.90;;
80621;SDS011;69980;51.914;7.526;2023-06-22T08:42:36;10.90;;;9.80;;
80621;SDS011;69980;51.914;7.526;2023-06-22T08:45:02;10.82;;;9.73;;
80621;SDS011;69980;51.914;7.526;2023-06-22T08:47:28;11.95;;;9.88;;
80621;SDS011;69980;51.914;7.526;2023-06-22T08:49:53;11.60;;;10.40;;
80621;SDS011;69980;51.914;7.526;2023-06-22T08:52:19;12.50;;;10.75;;
80621;SDS011;69980;51.914;7.526;2023-06-22T08:54:44;11.77;;;9.82;;
80621;SDS011;69980;51.914;7.526;2023-06-22T08:57:10;12.48;;;11.27;;
80621;SDS011;69980;51.914;7.526;2023-06-22T08:59:35;12.70;;;11.10;;
80621;SDS011;69980;51.914;7.526;2023-06-22T09:02:01;13.63;;;11.50;;
80621;SDS011;69980;51.914;7.526;2023-06-22T09:04:26;11.77;;;10.57;;
80621;SDS011;69980;51.914;7.526;2023-06-22T09:06:51;10.43;;;9.23;;
80621;SDS011;69980;51.914;7.526;2023-06-22T09:09:16;11.95;;;10.75;;
80621;SDS011;69980;51.914;7.526;2023-06-22T09:11:42;11.50;;;10.30;;
80621;SDS011;69980;51.914;7.526;2023-06-22T09:14:07;11.63;;;10.43;;
80621;SDS011;69980;51.914;7.526;2023-06-22T09:16:33;11.93;;;10.48;;
80621;SDS011;69980;51.914;7.526;2023-06-22T09:18:59;11.38;;;10.27;;
80621;SDS011;69980;51.914;7.526;2023-06-22T09:21:24;10.93;;;9.93;;
80621;SDS011;69980;51.914;7.526;2023-06-22T09:23:49;11.88;;;10.68;;
80621;SDS011;69980;51.914;7.526;2023-06-22T09:26:15;12.25;;;10.98;;
80621;SDS011;69980;51.914;7.526;2023-06-22T09:28:40;11.73;;;10.52;;
80621;SDS011;69980;51.914;7.526;2023-06-22T09:31:05;10.55;;;9.52;;
80621;SDS011;69980;51.914;7.526;2023-06-22T09:33:31;11.02;;;9.93;;
80621;SDS011;69980;51.914;7.526;2023-06-22T09:35:56;10.90;;;9.80;;
80621;SDS011;69980;51.914;7.526;2023-06-22T09:38:21;10.63;;;9.60;;
80621;SDS011;69980;51.914;7.526;2023-06-22T09:40:46;11.10;;;9.98;;
80621;SDS011;69980;51.914;7.526;2023-06-22T09:43:12;13.65;;;10.73;;
80621;SDS011;69980;51.914;7.526;2023-06-22T09:45:37;12.95;;;11.50;;
80621;SDS011;69980;51.914;7.526;2023-06-22T09:48:03;11.75;;;10.00;;
80621;SDS011;69980;51.914;7.526;2023-06-22T09:50:29;13.25;;;11.15;;
80621;SDS011;69980;51.914;7.526;2023-06-22T09:52:54;10.40;;;9.20;;
80621;SDS011;69980;51.914;7.526;2023-06-22T09:55:22;13.00;;;10.40;;
80621;SDS011;69980;51.914;7.526;2023-06-22T09:57:47;10.52;;;9.43;;
80621;SDS011;69980;51.914;7.526;2023-06-22T10:00:13;12.55;;;11.25;;
80621;SDS011;69980;51.914;7.526;2023-06-22T10:02:41;11.52;;;10.25;;
80621;SDS011;69980;51.914;7.526;2023-06-22T10:05:06;13.45;;;10.05;;
80621;SDS011;69980;51.914;7.526;2023-06-22T10:07:32;15.52;;;10.20;;
80621;SDS011;69980;51.914;7.526;2023-06-22T10:09:57;18.80;;;9.98;;
80621;SDS011;69980;51.914;7.526;2023-06-22T10:12:22;11.07;;;10.07;;
80621;SDS011;69980;51.914;7.526;2023-06-22T10:14:47;10.60;;;9.60;;
80621;SDS011;69980;51.914;7.526;2023-06-22T10:17:13;10.30;;;9.30;;
80621;SDS011;69980;51.914;7.526;2023-06-22T10:19:38;10.98;;;9.88;;
80621;SDS011;69980;51.914;7.526;2023-06-22T10:22:04;12.02;;;10.82;;
80621;SDS011;69980;51.914;7.526;2023-06-22T10:24:30;11.00;;;9.90;;
80621;SDS011;69980;51.914;7.526;2023-06-22T10:26:55;11.98;;;10.88;;
80621;SDS011;69980;51.914;7.526;2023-06-22T10:29:20;14.85;;;9.90;;
80621;SDS011;69980;51.914;7.526;2023-06-22T10:31:46;11.32;;;10.23;;
80621;SDS011;69980;51.914;7.526;2023-06-22T10:34:11;12.88;;;11.55;;
80621;SDS011;69980;51.914;7.526;2023-06-22T10:36:36;11.70;;;10.60;;
80621;SDS011;69980;51.914;7.526;2023-06-22T10:39:02;11.32;;;10.27;;
80621;SDS011;69980;51.914;7.526;2023-06-22T10:41:27;11.82;;;10.73;;
80621;SDS011;69980;51.914;7.526;2023-06-22T10:43:52;11.85;;;10.63;;
80621;SDS011;69980;51.914;7.526;2023-06-22T10:46:18;11.05;;;9.98;;
80621;SDS011;69980;51.914;7.526;2023-06-22T10:48:43;11.38;;;9.68;;
80621;SDS011;69980;51.914;7.526;2023-06-22T10:51:08;11.50;;;9.63;;
80621;SDS011;69980;51.914;7.526;2023-06-22T10:53:33;11.55;;;10.40;;
80621;SDS011;69980;51.914;7.526;2023-06-22T10:55:59;11.30;;;9.93;;
80621;SDS011;69980;51.914;7.526;2023-06-22T10:58:24;10.52;;;9.63;;
80621;SDS011;69980;51.914;7.526;2023-06-22T11:00:49;9.90;;;8.65;;
80621;SDS011;69980;51.914;7.526;2023-06-22T11:03:15;8.63;;;7.72;;
80621;SDS011;69980;51.914;7.526;2023-06-22T11:05:40;11.45;;;9.18;;
80621;SDS011;69980;51.914;7.526;2023-06-22T11:08:05;10.48;;;9.48;;
80621;SDS011;69980;51.914;7.526;2023-06-22T11:10:30;9.93;;;8.93;;
80621;SDS011;69980;51.914;7.526;2023-06-22T11:12:56;13.88;;;11.77;;
80621;SDS011;69980;51.914;7.526;2023-06-22T11:15:21;12.52;;;9.57;;
80621;SDS011;69980;51.914;7.526;2023-06-22T11:17:46;12.52;;;11.32;;
80621;SDS011;69980;51.914;7.526;2023-06-22T11:20:12;11.20;;;10.10;;
80621;SDS011;69980;51.914;7.526;2023-06-22T11:22:39;10.07;;;9.18;;
80621;SDS011;69980;51.914;7.526;2023-06-22T11:25:05;12.20;;;9.77;;
80621;SDS011;69980;51.914;7.526;2023-06-22T11:27:31;11.88;;;10.68;;
80621;SDS011;69980;51.914;7.526;2023-06-22T11:29:57;9.95;;;9.00;;
80621;SDS011;69980;51.914;7.526;2023-06-22T11:32:22;10.88;;;9.68;;
80621;SDS011;69980;51.914;7.526;2023-06-22T11:34:48;11.38;;;10.27;;
80621;SDS011;69980;51.914;7.526;2023-06-22T11:37:13;12.15;;;10.38;;
80621;SDS011;69980;51.914;7.526;2023-06-22T11:39:38;11.38;;;10.27;;
80621;SDS011;69980;51.914;7.526;2023-06-22T11:42:04;12.88;;;10.23;;
80621;SDS011;69980;51.914;7.526;2023-06-22T11:44:29;11.80;;;10.25;;
80621;SDS011;69980;51.914;7.526;2023-06-22T11:46:54;11.02;;;10.02;;
80621;SDS011;69980;51.914;7.526;2023-06-22T11:49:20;11.50;;;10.40;;
80621;SDS011;69980;51.914;7.526;2023-06-22T11:51:45;10.70;;;9.68;;
80621;SDS011;69980;51.914;7.526;2023-06-22T11:54:10;10.75;;;9.75;;
80621;SDS011;69980;51.914;7.526;2023-06-22T11:56:35;11.43;;;10.35;;
80621;SDS011;69980;51.914;7.526;2023-06-22T11:59:01;13.00;;;10.48;;
80621;SDS011;69980;51.914;7.526;2023-06-22T12:01:27;12.80;;;10.38;;
80621;SDS011;69980;51.914;7.526;2023-06-22T12:03:52;11.30;;;10.20;;
80621;SDS011;69980;51.914;7.526;2023-06-22T12:06:17;11.73;;;10.65;;
80621;SDS011;69980;51.914;7.526;2023-06-22T12:08:43;12.00;;;10.85;;
80621;SDS011;69980;51.914;7.526;2023-06-22T12:11:08;11.20;;;10.10;;
80621;SDS011;69980;51.914;7.526;2023-06-22T12:13:34;11.95;;;10.77;;
80621;SDS011;69980;51.914;7.526;2023-06-22T12:15:59;11.48;;;10.30;;
80621;SDS011;69980;51.914;7.526;2023-06-22T12:18:24;11.45;;;10.25;;
80621;SDS011;69980;51.914;7.526;2023-06-22T12:20:49;11.88;;;10.68;;
80621;SDS011;69980;51.914;7.526;2023-06-22T12:23:15;11.18;;;10.02;;
80621;SDS011;69980;51.914;7.526;2023-06-22T12:25:40;10.85;;;9.77;;
80621;SDS011;69980;51.914;7.526;2023-06-22T12:28:06;10.43;;;9.43;;
80621;SDS011;69980;51.914;7.526;2023-06-22T12:30:32;10.02;;;9.13;;
80621;SDS011;69980;51.914;7.526;2023-06-22T12:32:58;11.05;;;9.93;;
80621;SDS011;69980;51.914;7.526;2023-06-22T12:35:23;10.35;;;9.32;;
80621;SDS011;69980;51.914;7.526;2023-06-22T12:37:49;11.25;;;10.13;;
80621;SDS011;69980;51.914;7.526;2023-06-22T12:40:14;10.02;;;9.02;;
80621;SDS011;69980;51.914;7.526;2023-06-22T12:42:39;10.68;;;8.93;;
80621;SDS011;69980;51.914;7.526;2023-06-22T12:45:05;10.80;;;9.80;;
80621;SDS011;69980;51.914;7.526;2023-06-22T12:47:30;10.10;;;9.02;;
80621;SDS011;69980;51.914;7.526;2023-06-22T12:49:56;11.85;;;10.70;;
80621;SDS011;69980;51.914;7.526;2023-06-22T12:52:21;11.90;;;10.70;;
80621;SDS011;69980;51.914;7.526;2023-06-22T12:54:46;12.50;;;11.30;;
80621;SDS011;69980;51.914;7.526;2023-06-22T12:57:12;11.88;;;10.50;;
80621;SDS011;69980;51.914;7.526;2023-06-22T12:59:37;11.88;;;10.40;;
80621;SDS011;69980;51.914;7.526;2023-06-22T13:02:02;14.02;;;12.63;;
80621;SDS011;69980;51.914;7.526;2023-06-22T13:04:28;12.90;;;11.70;;
80621;SDS011;69980;51.914;7.526;2023-06-22T13:06:53;14.40;;;12.55;;
80621;SDS011;69980;51.914;7.526;2023-06-22T13:09:19;17.52;;;12.32;;
80621;SDS011;69980;51.914;7.526;2023-06-22T13:11:45;15.93;;;13.20;;
80621;SDS011;69980;51.914;7.526;2023-06-22T13:14:10;13.85;;;12.43;;
80621;SDS011;69980;51.914;7.526;2023-06-22T13:16:37;14.07;;;12.68;;
80621;SDS011;69980;51.914;7.526;2023-06-22T13:19:02;15.00;;;13.40;;
80621;SDS011;69980;51.914;7.526;2023-06-22T13:21:28;14.65;;;13.15;;
80621;SDS011;69980;51.914;7.526;2023-06-22T13:23:53;15.15;;;13.75;;
80621;SDS011;69980;51.914;7.526;2023-06-22T13:26:18;14.82;;;13.40;;
80621;SDS011;69980;51.914;7.526;2023-06-22T13:28:43;16.90;;;14.32;;
80621;SDS011;69980;51.914;7.526;2023-06-22T13:31:09;16.40;;;14.57;;
80621;SDS011;69980;51.914;7.526;2023-06-22T13:33:35;15.88;;;14.05;;
80621;SDS011;69980;51.914;7.526;2023-06-22T13:36:01;16.70;;;14.15;;
80621;SDS011;69980;51.914;7.526;2023-06-22T13:38:26;15.63;;;13.93;;
80621;SDS011;69980;51.914;7.526;2023-06-22T13:40:52;16.55;;;14.93;;
80621;SDS011;69980;51.914;7.526;2023-06-22T13:43:19;16.17;;;14.68;;
80621;SDS011;69980;51.914;7.526;2023-06-22T13:45:44;17.95;;;15.73;;
80621;SDS011;69980;51.914;7.526;2023-06-22T13:48:09;16.52;;;15.02;;
80621;SDS011;69980;51.914;7.526;2023-06-22T13:50:35;15.77;;;14.27;;
80621;SDS011;69980;51.914;7.526;2023-06-22T13:53:00;17.05;;;15.35;;
80621;SDS011;69980;51.914;7.526;2023-06-22T13:55:26;15.75;;;14.30;;
80621;SDS011;69980;51.914;7.526;2023-06-22T13:57:51;16.13;;;14.63;;
80621;SDS011;69980;51.914;7.526;2023-06-22T14:00:17;16.40;;;14.80;;
80621;SDS011;69980;51.914;7.526;2023-06-22T14:02:42;16.58;;;15.00;;
80621;SDS011;69980;51.914;7.526;2023-06-22T14:05:08;16.55;;;14.98;;
80621;SDS011;69980;51.914;7.526;2023-06-22T14:07:34;15.85;;;14.43;;
80621;SDS011;69980;51.914;7.526;2023-06-22T14:10:00;17.10;;;15.18;;
80621;SDS011;69980;51.914;7.526;2023-06-22T14:12:26;16.85;;;15.27;;
80621;SDS011;69980;51.914;7.526;2023-06-22T14:14:51;17.35;;;15.52;;
80621;SDS011;69980;51.914;7.526;2023-06-22T14:17:17;18.17;;;16.48;;
80621;SDS011;69980;51.914;7.526;2023-06-22T14:19:42;16.80;;;15.10;;